Time;durP1;ratioP1;P1;durP2;ratioP2;P2;SDS_P1;SDS_P2;PMS_P1;PMS_P2;Temp;Humidity;BMP_temperature;BMP_pressure;BME280_temperature;BME280_humidity;BME280_pressure;Samples;Min_cycle;Max_cycle;Signal;HPM_P1;HPM_P2
2022/01/29 00:00:49;;;;;;;36.08;16.20;;;7.10;59.20;;;;;;5019045;28;20447;-75
2022/01/29 00:03:14;;;;;;;33.00;17.02;;;7.10;59.60;;;;;;5036851;28;20448;-75
2022/01/29 00:05:40;;;;;;;36.72;16.65;;;7.10;59.70;;;;;;5037253;28;20387;-75
2022/01/29 00:08:05;;;;;;;37.67;17.65;;;7.10;59.90;;;;;;5019557;28;20388;-75
2022/01/29 00:10:31;;;;;;;40.10;17.00;;;7.10;59.70;;;;;;5016515;28;20454;-74
2022/01/29 00:12:57;;;;;;;43.40;17.95;;;7.10;60.10;;;;;;4999553;28;20423;-74
2022/01/29 00:15:23;;;;;;;41.30;18.48;;;7.10;61.10;;;;;;5016462;28;20488;-75
2022/01/29 00:17:49;;;;;;;42.17;18.75;;;7.10;60.10;;;;;;5017481;28;20492;-74
2022/01/29 00:20:14;;;;;;;42.00;19.37;;;7.20;60.60;;;;;;5022501;28;20820;-73
2022/01/29 00:22:41;;;;;;;40.33;19.90;;;7.10;61.70;;;;;;5019941;28;20413;-74
2022/01/29 00:25:08;;;;;;;40.55;20.35;;;7.10;62.20;;;;;;5027832;28;20396;-75
2022/01/29 00:27:35;;;;;;;45.80;21.17;;;7.10;62.20;;;;;;5035939;28;20432;-75
2022/01/29 00:30:06;;;;;;;43.90;20.67;;;7.20;62.10;;;;;;5027488;28;20491;-74
2022/01/29 00:32:32;;;;;;;44.85;21.35;;;7.20;62.40;;;;;;5019844;28;20535;-76
2022/01/29 00:34:57;;;;;;;47.50;22.07;;;7.10;63.00;;;;;;5021158;28;20432;-74
2022/01/29 00:37:23;;;;;;;45.33;22.03;;;7.10;63.40;;;;;;5019815;28;20392;-75
2022/01/29 00:39:48;;;;;;;48.60;21.90;;;7.20;62.80;;;;;;5000943;28;20400;-73
2022/01/29 00:42:14;;;;;;;50.37;21.97;;;7.10;64.10;;;;;;5002090;28;20413;-74
2022/01/29 00:44:39;;;;;;;49.20;23.60;;;7.20;63.80;;;;;;5020225;28;20393;-73
2022/01/29 00:47:05;;;;;;;47.60;20.93;;;7.20;64.50;;;;;;5023360;28;20380;-74
2022/01/29 00:49:31;;;;;;;47.97;23.60;;;7.30;63.70;;;;;;5024563;28;20393;-74
2022/01/29 00:51:56;;;;;;;50.87;23.70;;;7.30;63.00;;;;;;5023182;28;20808;-73
2022/01/29 00:54:22;;;;;;;52.73;22.90;;;7.30;63.60;;;;;;5029804;28;20431;-74
2022/01/29 00:56:47;;;;;;;50.13;23.00;;;7.30;64.30;;;;;;5038750;28;20820;-73
2022/01/29 00:59:13;;;;;;;47.10;23.97;;;7.30;64.00;;;;;;5022829;28;20761;-74
2022/01/29 01:01:39;;;;;;;51.97;23.27;;;7.30;64.40;;;;;;5013540;28;20408;-73
2022/01/29 01:04:04;;;;;;;49.23;24.13;;;7.30;64.50;;;;;;5013799;28;20400;-73
2022/01/29 01:06:30;;;;;;;50.87;24.10;;;7.30;65.30;;;;;;5013328;28;20416;-75
2022/01/29 01:08:55;;;;;;;58.67;25.25;;;7.30;64.10;;;;;;5013318;28;20392;-74
2022/01/29 01:11:21;;;;;;;55.20;26.05;;;7.30;64.40;;;;;;5013592;28;20495;-74
2022/01/29 01:13:47;;;;;;;52.78;23.83;;;7.30;64.70;;;;;;5013110;28;20401;-74
2022/01/29 01:16:12;;;;;;;50.88;24.98;;;7.40;63.60;;;;;;5013582;28;20389;-74
2022/01/29 01:18:38;;;;;;;59.45;26.92;;;7.30;63.90;;;;;;5013429;28;20402;-73
2022/01/29 01:21:03;;;;;;;58.05;26.92;;;7.40;63.90;;;;;;5018504;28;20423;-73
2022/01/29 01:23:29;;;;;;;59.20;29.85;;;7.30;63.80;;;;;;5021320;28;20882;-73
2022/01/29 01:25:54;;;;;;;63.75;29.42;;;7.40;64.10;;;;;;5013006;28;20381;-73
2022/01/29 01:28:20;;;;;;;63.47;30.07;;;7.30;65.10;;;;;;5012910;28;20487;-74
2022/01/29 01:30:46;;;;;;;60.10;29.00;;;7.30;64.40;;;;;;4995931;28;20409;-75
2022/01/29 01:33:11;;;;;;;62.53;29.10;;;7.40;65.50;;;;;;4993857;28;20402;-75
2022/01/29 01:35:48;;;;;;;57.87;28.63;;;7.40;64.70;;;;;;4996554;28;21851;-72
2022/01/29 01:38:20;;;;;;;58.25;29.17;;;7.40;65.40;;;;;;5009343;28;20404;-74
2022/01/29 01:40:51;;;;;;;53.10;29.05;;;7.30;65.80;;;;;;4994861;28;20482;-74
2022/01/29 01:43:17;;;;;;;54.55;27.65;;;7.40;64.50;;;;;;5012477;28;20770;-73
2022/01/29 01:45:43;;;;;;;56.33;27.90;;;7.40;64.10;;;;;;4994978;28;20385;-74
2022/01/29 01:48:08;;;;;;;54.13;25.52;;;7.40;64.50;;;;;;4994812;28;20829;-73
2022/01/29 01:50:35;;;;;;;50.22;24.85;;;7.40;63.60;;;;;;5020214;28;20391;-74
2022/01/29 01:53:02;;;;;;;53.38;25.98;;;7.40;63.40;;;;;;5025112;28;20387;-74
2022/01/29 01:55:28;;;;;;;51.53;24.55;;;7.40;63.00;;;;;;5022626;28;20396;-73
2022/01/29 01:57:53;;;;;;;52.58;24.50;;;7.50;62.90;;;;;;4994867;28;20709;-75
2022/01/29 02:00:19;;;;;;;53.40;25.00;;;7.50;61.60;;;;;;5012883;28;20394;-73
2022/01/29 02:02:45;;;;;;;48.30;24.80;;;7.50;61.20;;;;;;5012661;28;20480;-75
2022/01/29 02:05:11;;;;;;;49.13;25.30;;;7.40;62.00;;;;;;5012631;28;20788;-74
2022/01/29 02:07:37;;;;;;;57.93;25.70;;;7.40;61.90;;;;;;5012324;28;20384;-73
2022/01/29 02:10:09;;;;;;;47.60;23.95;;;7.50;61.50;;;;;;5012724;28;20389;-73
2022/01/29 02:12:52;;;;;;;49.13;24.10;;;7.50;61.70;;;;;;5012645;28;20899;-73
2022/01/29 02:15:20;;;;;;;47.20;24.13;;;7.50;61.40;;;;;;5012630;28;20385;-73
2022/01/29 02:17:46;;;;;;;51.33;24.10;;;7.40;61.90;;;;;;5013781;28;21061;-73
2022/01/29 02:20:17;;;;;;;52.92;25.55;;;7.50;60.70;;;;;;5018285;28;20769;-73
2022/01/29 02:22:44;;;;;;;49.58;25.10;;;7.50;61.30;;;;;;5012430;28;20967;-73
2022/01/29 02:25:33;;;;;;;56.25;27.02;;;7.50;62.20;;;;;;5012527;28;20384;-74
2022/01/29 02:28:02;;;;;;;53.83;27.50;;;7.50;61.80;;;;;;4992879;28;20396;-74
2022/01/29 02:30:30;;;;;;;56.17;27.20;;;7.50;62.10;;;;;;5012847;28;20397;-74
2022/01/29 02:32:57;;;;;;;49.80;24.80;;;7.40;62.60;;;;;;4994938;28;20396;-74
2022/01/29 02:35:23;;;;;;;46.38;23.00;;;7.50;62.00;;;;;;5012286;28;20389;-74
2022/01/29 02:37:51;;;;;;;51.35;25.00;;;7.50;62.50;;;;;;5011783;28;20496;-73
2022/01/29 02:40:18;;;;;;;47.58;23.88;;;7.50;63.30;;;;;;5003210;28;20389;-73
2022/01/29 02:42:44;;;;;;;46.90;22.23;;;7.40;64.10;;;;;;4997906;28;20412;-73
2022/01/29 02:45:12;;;;;;;50.50;23.57;;;7.50;64.40;;;;;;5011411;28;20392;-74
2022/01/29 02:47:38;;;;;;;41.33;21.13;;;7.50;64.80;;;;;;5019169;28;20385;-74
2022/01/29 02:50:04;;;;;;;54.13;23.97;;;7.40;65.50;;;;;;5011817;28;20399;-74
2022/01/29 02:52:29;;;;;;;42.53;22.90;;;7.40;66.60;;;;;;5011475;28;20435;-74
2022/01/29 02:54:55;;;;;;;46.35;22.38;;;7.40;67.90;;;;;;4991604;28;20480;-74
2022/01/29 02:57:21;;;;;;;56.80;23.33;;;7.40;68.10;;;;;;5009381;28;20385;-76
2022/01/29 02:59:46;;;;;;;50.63;23.70;;;7.40;68.50;;;;;;5010513;28;20908;-75
2022/01/29 03:02:12;;;;;;;48.35;24.17;;;7.40;69.40;;;;;;5010404;28;20412;-75
2022/01/29 03:04:37;;;;;;;50.60;25.60;;;7.40;69.40;;;;;;5012628;28;20491;-75
2022/01/29 03:07:03;;;;;;;52.63;23.67;;;7.40;70.30;;;;;;5013608;28;20388;-76
2022/01/29 03:09:28;;;;;;;51.57;25.17;;;7.40;69.30;;;;;;5013977;28;20481;-76
2022/01/29 03:11:56;;;;;;;49.97;24.80;;;7.30;70.40;;;;;;5014926;28;20388;-75
2022/01/29 03:14:22;;;;;;;53.28;25.70;;;7.40;70.30;;;;;;5013011;28;20794;-76
2022/01/29 03:16:47;;;;;;;49.10;25.90;;;7.30;71.10;;;;;;5028081;28;20409;-76
2022/01/29 03:19:13;;;;;;;47.20;23.30;;;7.30;71.60;;;;;;5013097;28;20483;-75
2022/01/29 03:21:40;;;;;;;44.42;24.00;;;7.40;71.50;;;;;;5025237;28;20504;-75
2022/01/29 03:24:06;;;;;;;44.37;22.97;;;7.40;71.30;;;;;;5030926;28;20574;-75
2022/01/29 03:26:32;;;;;;;44.17;22.50;;;7.40;70.10;;;;;;5030819;28;20375;-74
2022/01/29 03:28:57;;;;;;;47.88;23.25;;;7.40;71.80;;;;;;5018530;28;20805;-75
2022/01/29 03:31:26;;;;;;;43.47;23.35;;;7.40;72.40;;;;;;5011305;28;20404;-75
2022/01/29 03:33:53;;;;;;;45.58;22.75;;;7.40;73.30;;;;;;4993658;28;20393;-75
2022/01/29 03:36:18;;;;;;;47.70;23.40;;;7.40;74.70;;;;;;5011392;28;20441;-75
2022/01/29 03:38:44;;;;;;;47.97;23.33;;;7.40;75.20;;;;;;5010108;28;20440;-75
2022/01/29 03:41:12;;;;;;;43.97;22.63;;;7.40;75.90;;;;;;4995601;28;20485;-75
2022/01/29 03:43:44;;;;;;;44.47;23.85;;;7.30;75.30;;;;;;4990864;28;20430;-76
2022/01/29 03:46:11;;;;;;;47.53;23.48;;;7.40;76.10;;;;;;5011750;28;20411;-75
2022/01/29 03:48:36;;;;;;;41.07;22.67;;;7.40;75.20;;;;;;5010958;28;20455;-75
2022/01/29 03:51:02;;;;;;;48.40;24.67;;;7.50;74.40;;;;;;5014056;28;20396;-75
2022/01/29 03:53:27;;;;;;;50.40;25.03;;;7.50;74.10;;;;;;5016634;28;20468;-75
2022/01/29 03:55:53;;;;;;;44.10;23.93;;;7.40;75.50;;;;;;5014839;28;20782;-75
2022/01/29 03:58:18;;;;;;;49.27;23.83;;;7.40;76.00;;;;;;5015893;28;20400;-76
2022/01/29 04:00:44;;;;;;;38.00;20.23;;;7.40;75.40;;;;;;5017352;28;20510;-75
2022/01/29 04:03:09;;;;;;;41.27;19.00;;;7.50;73.50;;;;;;4998995;28;20402;-74
2022/01/29 04:05:35;;;;;;;41.83;20.60;;;7.50;74.10;;;;;;5011214;28;20468;-76
2022/01/29 04:08:01;;;;;;;42.58;21.45;;;7.50;74.40;;;;;;5011035;28;20389;-75
2022/01/29 04:10:28;;;;;;;42.70;20.90;;;7.50;74.50;;;;;;5008682;28;20392;-75
2022/01/29 04:12:54;;;;;;;32.92;18.45;;;7.50;75.40;;;;;;5022247;28;20720;-76
2022/01/29 04:15:20;;;;;;;38.23;19.30;;;7.50;75.50;;;;;;5010911;28;20393;-76
2022/01/29 04:17:46;;;;;;;40.17;18.48;;;7.50;75.20;;;;;;5010191;28;20858;-75
2022/01/29 04:20:12;;;;;;;36.60;19.08;;;7.60;75.60;;;;;;5013294;28;20422;-76
2022/01/29 04:22:37;;;;;;;43.70;20.70;;;7.60;75.70;;;;;;5012737;28;20407;-75
2022/01/29 04:25:04;;;;;;;36.93;19.93;;;7.50;77.00;;;;;;5021460;28;20948;-75
2022/01/29 04:27:40;;;;;;;39.28;19.92;;;7.50;77.20;;;;;;5010414;28;20393;-74
2022/01/29 04:30:11;;;;;;;35.97;19.83;;;7.50;78.00;;;;;;5010600;28;20453;-75
2022/01/29 04:35:07;;;;;;;42.75;20.60;;;7.50;80.40;;;;;;5014892;28;20388;-75
2022/01/29 04:37:32;;;;;;;45.33;18.90;;;7.50;81.10;;;;;;5014215;28;20396;-75
2022/01/29 04:39:58;;;;;;;45.75;19.08;;;7.50;82.30;;;;;;5013768;28;20395;-76
2022/01/29 04:42:23;;;;;;;53.40;21.33;;;7.50;83.20;;;;;;5000786;28;20531;-77
2022/01/29 04:44:49;;;;;;;50.13;19.30;;;7.50;85.50;;;;;;5016761;28;20460;-76
2022/01/29 04:47:15;;;;;;;45.93;19.33;;;7.50;87.20;;;;;;5015800;28;20953;-75
2022/01/29 04:49:40;;;;;;;42.37;18.70;;;7.40;89.10;;;;;;5014483;28;20419;-76
2022/01/29 04:52:06;;;;;;;59.47;19.57;;;7.40;89.30;;;;;;5015759;28;20404;-76
2022/01/29 04:54:33;;;;;;;48.97;19.90;;;7.40;91.30;;;;;;5017309;28;20404;-74
2022/01/29 04:56:58;;;;;;;42.45;17.58;;;7.30;93.30;;;;;;5015732;28;20397;-75
2022/01/29 04:59:24;;;;;;;37.75;19.17;;;7.40;93.20;;;;;;5015483;28;20447;-76
2022/01/29 05:01:49;;;;;;;41.00;17.77;;;7.30;94.90;;;;;;4996791;28;20405;-75
2022/01/29 05:04:15;;;;;;;35.13;17.85;;;7.30;96.40;;;;;;5017644;28;20423;-75
2022/01/29 05:06:41;;;;;;;33.80;17.20;;;7.30;96.20;;;;;;5017964;28;20467;-76
2022/01/29 05:09:08;;;;;;;27.83;15.70;;;7.30;95.70;;;;;;5020162;28;20393;-75
2022/01/29 05:11:34;;;;;;;30.10;16.00;;;7.30;96.10;;;;;;5014342;28;20399;-75
2022/01/29 05:14:01;;;;;;;29.40;15.55;;;7.40;96.90;;;;;;5018605;28;20397;-76
2022/01/29 05:17:16;;;;;;;27.90;16.00;;;7.30;95.80;;;;;;5019659;28;20409;-76
2022/01/29 05:27:40;;;;;;;35.25;19.98;;;7.30;98.80;;;;;;5015808;28;20434;-75
2022/01/29 05:30:05;;;;;;;37.50;21.37;;;7.30;97.50;;;;;;5018152;28;20405;-76
2022/01/29 05:32:31;;;;;;;38.78;21.40;;;7.30;97.00;;;;;;5018589;28;20480;-74
2022/01/29 05:34:56;;;;;;;35.00;21.17;;;7.40;97.50;;;;;;5019020;28;20411;-75
2022/01/29 05:37:22;;;;;;;36.25;21.30;;;7.40;97.00;;;;;;5024104;28;20397;-75
2022/01/29 05:39:48;;;;;;;40.55;23.38;;;7.40;94.90;;;;;;5000403;28;20399;-75
2022/01/29 05:42:13;;;;;;;32.75;18.23;;;7.40;95.50;;;;;;4993737;28;20606;-76
2022/01/29 05:44:39;;;;;;;34.92;20.77;;;7.50;93.70;;;;;;5001837;28;20405;-74
2022/01/29 05:47:04;;;;;;;39.00;21.10;;;7.50;94.30;;;;;;5013791;28;20380;-76
2022/01/29 05:49:30;;;;;;;36.35;20.52;;;7.40;94.20;;;;;;4995616;28;20754;-75
2022/01/29 05:51:56;;;;;;;34.20;19.92;;;7.40;94.30;;;;;;5014039;28;20404;-75
2022/01/29 05:54:21;;;;;;;34.65;20.00;;;7.40;93.90;;;;;;5019413;28;20389;-73
2022/01/29 05:56:47;;;;;;;36.00;20.30;;;7.50;93.50;;;;;;5016761;28;20396;-74
2022/01/29 05:59:13;;;;;;;32.93;19.87;;;7.50;93.90;;;;;;5016482;28;20397;-74
2022/01/29 06:01:38;;;;;;;30.45;19.85;;;7.60;93.40;;;;;;5016423;28;20535;-73
2022/01/29 06:04:06;;;;;;;30.45;17.98;;;7.50;92.50;;;;;;5024620;28;20475;-74
2022/01/29 06:06:31;;;;;;;24.73;15.45;;;7.60;91.90;;;;;;5015727;28;20510;-74
2022/01/29 06:09:01;;;;;;;28.92;17.25;;;7.60;90.50;;;;;;4996405;28;20484;-72
2022/01/29 06:11:27;;;;;;;28.27;18.08;;;7.60;91.90;;;;;;5012968;28;20861;-73
2022/01/29 06:13:52;;;;;;;26.80;17.00;;;7.70;91.70;;;;;;5014448;28;20412;-73
2022/01/29 06:16:18;;;;;;;25.87;16.00;;;7.70;91.70;;;;;;5012258;28;20403;-73
2022/01/29 06:18:44;;;;;;;22.43;14.83;;;7.70;90.20;;;;;;5011550;28;20397;-73
2022/01/29 06:21:11;;;;;;;21.70;13.93;;;7.70;90.90;;;;;;5012592;28;20507;-73
2022/01/29 06:23:38;;;;;;;25.80;16.40;;;7.80;90.30;;;;;;5012592;28;20471;-72
2022/01/29 06:26:06;;;;;;;28.02;17.27;;;7.80;90.20;;;;;;5012460;28;20446;-72
2022/01/29 06:28:33;;;;;;;23.97;14.83;;;7.80;90.60;;;;;;5012445;28;20863;-73
2022/01/29 06:30:59;;;;;;;21.98;13.75;;;7.80;92.00;;;;;;5011998;28;20886;-71
2022/01/29 06:33:25;;;;;;;19.55;12.52;;;7.80;90.90;;;;;;5020650;28;20858;-72
2022/01/29 06:35:51;;;;;;;21.45;13.63;;;7.80;90.40;;;;;;5012726;28;20531;-71
2022/01/29 06:38:17;;;;;;;21.17;13.23;;;7.80;91.60;;;;;;5006016;28;20422;-73
2022/01/29 06:40:43;;;;;;;18.38;13.30;;;7.80;92.90;;;;;;4997290;28;20414;-73
2022/01/29 06:43:09;;;;;;;19.38;12.40;;;7.90;92.10;;;;;;4975099;28;20413;-73
2022/01/29 06:45:39;;;;;;;19.52;13.35;;;7.90;91.80;;;;;;5006319;28;20425;-72
2022/01/29 06:48:05;;;;;;;23.95;14.35;;;7.90;92.10;;;;;;5012793;28;20385;-74
2022/01/29 06:50:31;;;;;;;22.08;14.25;;;7.90;91.40;;;;;;5012046;28;20468;-73
2022/01/29 06:52:57;;;;;;;21.88;13.90;;;7.90;92.80;;;;;;4993843;28;20425;-73
2022/01/29 06:55:23;;;;;;;22.77;14.40;;;7.90;92.50;;;;;;4998652;28;20382;-73
2022/01/29 06:57:48;;;;;;;22.25;15.05;;;7.90;93.50;;;;;;4994082;28;20394;-72
2022/01/29 07:00:15;;;;;;;23.07;15.50;;;7.90;94.40;;;;;;5016030;28;20425;-73
2022/01/29 07:02:40;;;;;;;24.73;15.80;;;7.90;93.50;;;;;;5020991;28;20758;-72
2022/01/29 07:05:08;;;;;;;23.20;15.00;;;8.00;94.50;;;;;;5012465;28;20392;-72
2022/01/29 07:07:34;;;;;;;23.85;15.02;;;8.00;93.60;;;;;;5011988;28;20416;-72
2022/01/29 07:10:00;;;;;;;24.38;15.77;;;8.00;93.20;;;;;;5011889;28;20396;-72
2022/01/29 07:12:26;;;;;;;26.75;16.70;;;8.10;92.90;;;;;;5011929;28;20416;-72
2022/01/29 07:14:51;;;;;;;24.67;16.50;;;8.10;93.20;;;;;;5011447;28;20454;-71
2022/01/29 07:17:18;;;;;;;28.05;16.60;;;8.10;93.00;;;;;;5011533;28;20397;-73
2022/01/29 07:19:46;;;;;;;27.85;16.40;;;8.10;93.30;;;;;;5011530;28;20391;-73
2022/01/29 07:22:12;;;;;;;24.92;16.80;;;8.10;93.60;;;;;;5011530;28;20503;-72
2022/01/29 07:24:38;;;;;;;25.20;16.10;;;8.10;93.40;;;;;;5011383;28;20385;-72
2022/01/29 07:27:05;;;;;;;27.07;16.43;;;8.20;90.80;;;;;;5011420;28;20468;-73
2022/01/29 07:29:31;;;;;;;25.83;15.77;;;8.20;90.80;;;;;;5016196;28;20763;-72
2022/01/29 07:31:57;;;;;;;22.67;15.23;;;8.20;91.40;;;;;;5031135;28;20390;-73
2022/01/29 07:34:24;;;;;;;24.40;16.40;;;8.20;90.20;;;;;;5031481;28;20397;-73
2022/01/29 07:36:51;;;;;;;23.42;15.00;;;8.20;90.10;;;;;;5031061;28;20438;-73
2022/01/29 07:39:17;;;;;;;21.95;14.85;;;8.20;89.50;;;;;;5015738;28;20492;-73
2022/01/29 07:41:42;;;;;;;22.73;15.20;;;8.30;89.50;;;;;;4993717;28;20497;-73
2022/01/29 07:44:08;;;;;;;21.37;14.57;;;8.30;89.00;;;;;;5011752;28;20389;-72
2022/01/29 07:46:33;;;;;;;23.67;14.80;;;8.30;88.80;;;;;;4993594;28;20396;-74
2022/01/29 07:48:59;;;;;;;20.25;13.90;;;8.30;88.70;;;;;;5011794;28;20407;-73
2022/01/29 07:51:25;;;;;;;20.08;13.85;;;8.30;88.90;;;;;;5011530;28;20834;-73
2022/01/29 07:53:51;;;;;;;21.27;14.73;;;8.30;88.80;;;;;;4994647;28;20905;-73
2022/01/29 07:56:16;;;;;;;20.93;14.30;;;8.30;89.70;;;;;;5011533;28;20468;-72
2022/01/29 07:58:42;;;;;;;19.70;14.10;;;8.40;89.20;;;;;;5021269;28;20410;-73
2022/01/29 08:01:08;;;;;;;22.02;14.98;;;8.40;90.20;;;;;;5016355;28;20420;-73
2022/01/29 08:03:33;;;;;;;19.40;13.30;;;8.40;88.80;;;;;;5013110;28;20388;-74
2022/01/29 08:05:59;;;;;;;20.52;13.20;;;8.50;88.10;;;;;;5011976;28;20393;-72
2022/01/29 08:08:25;;;;;;;19.73;14.18;;;8.50;87.50;;;;;;4997088;28;20396;-73
2022/01/29 08:10:52;;;;;;;20.42;13.90;;;8.50;87.50;;;;;;5014968;28;20416;-73
2022/01/29 08:13:18;;;;;;;21.08;13.93;;;8.60;87.60;;;;;;5015821;28;20745;-73
2022/01/29 08:15:44;;;;;;;22.03;14.33;;;8.60;85.90;;;;;;5018399;28;20498;-73
2022/01/29 08:18:09;;;;;;;20.37;13.90;;;8.60;86.30;;;;;;5032221;28;20381;-74
2022/01/29 08:20:35;;;;;;;18.70;13.57;;;8.70;85.40;;;;;;5040838;28;20737;-75
2022/01/29 08:23:07;;;;;;;21.27;13.40;;;8.70;86.30;;;;;;5043231;28;20416;-75
2022/01/29 08:25:32;;;;;;;22.63;14.15;;;8.70;85.70;;;;;;5016962;28;20483;-74
2022/01/29 08:27:58;;;;;;;21.30;14.40;;;8.70;88.30;;;;;;5035480;28;20521;-76
2022/01/29 08:30:23;;;;;;;23.13;14.27;;;8.80;85.00;;;;;;5021016;28;20400;-75
2022/01/29 08:32:49;;;;;;;20.70;13.88;;;8.70;85.50;;;;;;4996832;28;20412;-76
2022/01/29 08:35:15;;;;;;;23.95;15.32;;;8.80;84.70;;;;;;5010312;28;20401;-76
2022/01/29 08:37:42;;;;;;;21.97;14.33;;;8.80;85.10;;;;;;4998704;28;20436;-75
2022/01/29 08:40:09;;;;;;;26.80;16.70;;;8.80;83.90;;;;;;5017189;28;20840;-76
2022/01/29 08:42:34;;;;;;;29.45;18.75;;;8.80;85.00;;;;;;5016910;28;20412;-76
2022/01/29 08:45:01;;;;;;;30.55;21.10;;;8.90;84.30;;;;;;5030906;28;20445;-76
2022/01/29 08:47:27;;;;;;;35.15;21.67;;;8.90;84.60;;;;;;5018175;28;20392;-76
2022/01/29 08:49:52;;;;;;;27.80;19.37;;;8.90;83.40;;;;;;5022561;28;20399;-75
2022/01/29 08:52:18;;;;;;;32.70;21.40;;;8.90;82.70;;;;;;5019254;28;20401;-75
2022/01/29 08:54:44;;;;;;;32.90;22.50;;;8.90;83.80;;;;;;5016923;28;20897;-77
2022/01/29 08:57:09;;;;;;;37.55;24.63;;;9.00;82.80;;;;;;5020971;28;20405;-75
2022/01/29 08:59:35;;;;;;;35.17;22.67;;;9.00;82.80;;;;;;5035595;28;20396;-75
2022/01/29 09:02:01;;;;;;;30.98;21.38;;;9.00;82.50;;;;;;5027336;28;20456;-76
2022/01/29 09:04:26;;;;;;;30.38;20.92;;;9.00;82.50;;;;;;5010943;28;20447;-75
2022/01/29 09:06:52;;;;;;;28.85;19.95;;;9.00;81.90;;;;;;5022622;28;20405;-76
2022/01/29 09:09:23;;;;;;;24.33;15.98;;;9.10;82.30;;;;;;5020683;28;20439;-75
2022/01/29 09:11:49;;;;;;;23.60;16.27;;;9.10;81.60;;;;;;5018739;28;20412;-75
2022/01/29 09:14:15;;;;;;;21.50;14.95;;;9.20;82.00;;;;;;5023321;28;20401;-75
2022/01/29 09:16:40;;;;;;;24.45;15.68;;;9.10;82.10;;;;;;5018231;28;20423;-76
2022/01/29 09:19:06;;;;;;;31.02;15.18;;;9.20;81.70;;;;;;5015720;28;20408;-77
2022/01/29 09:21:31;;;;;;;25.35;16.60;;;9.10;82.60;;;;;;4999845;28;20423;-74
2022/01/29 09:23:57;;;;;;;23.75;16.25;;;9.10;82.20;;;;;;5021417;28;20459;-75
2022/01/29 09:26:23;;;;;;;24.50;16.38;;;9.10;82.80;;;;;;5017773;28;20438;-75
2022/01/29 09:28:49;;;;;;;20.27;15.52;;;9.30;82.50;;;;;;5004464;28;20864;-75
2022/01/29 09:31:14;;;;;;;21.85;16.42;;;9.30;81.20;;;;;;5014584;28;20408;-75
2022/01/29 09:33:40;;;;;;;21.50;14.63;;;9.40;81.40;;;;;;5014245;28;20793;-75
2022/01/29 09:36:06;;;;;;;21.63;15.13;;;9.40;79.80;;;;;;5014123;28;20420;-76
2022/01/29 09:38:32;;;;;;;23.70;15.82;;;9.40;79.10;;;;;;5017255;28;20880;-77
2022/01/29 09:40:59;;;;;;;20.00;14.90;;;9.50;77.80;;;;;;4996353;28;20415;-77
2022/01/29 09:43:28;;;;;;;17.90;13.35;;;9.50;78.70;;;;;;5008549;28;20400;-76
2022/01/29 09:45:53;;;;;;;17.05;12.57;;;9.60;77.20;;;;;;5015946;28;20463;-76
2022/01/29 09:48:23;;;;;;;18.37;12.83;;;9.70;76.20;;;;;;4998988;28;20404;-75
2022/01/29 09:50:51;;;;;;;20.95;12.90;;;9.70;76.00;;;;;;5005397;28;20793;-75
2022/01/29 09:53:17;;;;;;;19.67;12.50;;;9.70;75.80;;;;;;5013979;28;20393;-75
2022/01/29 09:55:43;;;;;;;21.60;13.35;;;9.60;76.50;;;;;;5020261;28;20416;-76
2022/01/29 09:58:09;;;;;;;20.20;14.55;;;9.80;75.40;;;;;;5026277;28;20405;-76
2022/01/29 10:00:36;;;;;;;20.98;13.95;;;9.80;75.80;;;;;;5006760;28;20436;-78
2022/01/29 10:03:10;;;;;;;20.65;14.00;;;9.80;76.20;;;;;;5012313;28;20406;-77
2022/01/29 10:05:38;;;;;;;20.13;14.10;;;9.80;74.30;;;;;;5037094;28;20401;-76
2022/01/29 10:08:05;;;;;;;21.52;13.15;;;9.80;75.00;;;;;;5028679;28;20399;-76
2022/01/29 10:10:47;;;;;;;21.77;13.60;;;9.90;74.20;;;;;;5024896;28;20993;-78
2022/01/29 10:13:28;;;;;;;16.95;12.25;;;9.90;74.80;;;;;;5024801;28;20773;-76
2022/01/29 10:16:11;;;;;;;17.98;12.38;;;10.00;73.40;;;;;;5035570;28;20399;-76
2022/01/29 10:18:38;;;;;;;18.13;12.35;;;10.00;73.20;;;;;;5027508;28;20391;-81
2022/01/29 10:21:15;;;;;;;18.17;12.40;;;10.00;73.40;;;;;;5024285;28;20453;-73
2022/01/29 10:23:44;;;;;;;17.80;11.57;;;10.10;73.80;;;;;;5032530;28;20375;-74
2022/01/29 10:26:10;;;;;;;15.93;11.15;;;10.00;73.60;;;;;;5032154;28;20378;-75
2022/01/29 10:28:37;;;;;;;15.50;11.10;;;10.00;73.80;;;;;;5018953;28;20878;-74
2022/01/29 10:31:07;;;;;;;17.88;11.57;;;10.00;73.70;;;;;;5013094;28;20911;-75
2022/01/29 10:33:39;;;;;;;16.20;11.15;;;10.00;73.90;;;;;;5011833;28;20857;-74
2022/01/29 10:36:07;;;;;;;17.77;10.75;;;10.10;73.40;;;;;;5012872;28;20481;-74
2022/01/29 10:38:46;;;;;;;18.20;11.40;;;10.00;75.50;;;;;;5003651;28;20437;-75
2022/01/29 10:41:21;;;;;;;18.20;11.25;;;10.00;74.80;;;;;;5008922;28;20415;-75
2022/01/29 10:44:19;;;;;;;15.55;10.90;;;10.10;75.00;;;;;;5012761;28;20476;-74
2022/01/29 10:46:53;;;;;;;13.98;10.32;;;10.10;75.50;;;;;;4981523;28;20554;-74
2022/01/29 10:49:28;;;;;;;14.88;10.38;;;10.20;74.30;;;;;;5013620;28;20838;-73
2022/01/29 10:52:06;;;;;;;15.00;10.75;;;10.20;74.50;;;;;;4995043;28;20466;-74
2022/01/29 10:54:34;;;;;;;15.15;9.90;;;10.10;76.70;;;;;;5006885;28;20458;-74
2022/01/29 10:57:01;;;;;;;16.30;10.30;;;10.10;78.20;;;;;;4991886;28;20819;-74
2022/01/29 10:59:29;;;;;;;18.92;10.90;;;10.10;80.00;;;;;;4992209;28;20891;-74
2022/01/29 11:02:01;;;;;;;14.82;10.65;;;10.00;82.00;;;;;;4999055;28;20417;-74
2022/01/29 11:04:29;;;;;;;16.92;11.40;;;10.00;83.00;;;;;;5011812;28;20391;-75
2022/01/29 11:06:59;;;;;;;13.82;9.88;;;10.10;84.10;;;;;;5011683;28;20433;-75
2022/01/29 11:09:26;;;;;;;12.70;9.40;;;10.10;82.50;;;;;;5012104;28;20456;-74
2022/01/29 11:11:54;;;;;;;14.60;9.95;;;10.00;84.00;;;;;;5012252;28;20392;-74
2022/01/29 11:14:21;;;;;;;13.00;9.47;;;10.00;84.90;;;;;;5012655;28;20396;-73
2022/01/29 11:16:47;;;;;;;11.02;8.93;;;10.00;85.30;;;;;;5011491;28;20459;-74
2022/01/29 11:19:16;;;;;;;15.02;9.70;;;10.00;85.50;;;;;;4993755;28;20404;-73
2022/01/29 11:21:43;;;;;;;12.15;8.75;;;10.00;87.20;;;;;;5026560;28;20407;-74
2022/01/29 11:24:10;;;;;;;10.60;8.63;;;10.00;87.50;;;;;;5032116;28;20407;-75
2022/01/29 11:26:37;;;;;;;10.80;8.70;;;10.00;88.70;;;;;;5031495;28;20387;-75
2022/01/29 11:29:24;;;;;;;12.95;9.00;;;10.10;87.10;;;;;;5028592;28;20436;-75
2022/01/29 11:32:38;;;;;;;9.50;8.40;;;10.10;87.70;;;;;;5011235;28;20404;-73
2022/01/29 11:35:15;;;;;;;11.38;8.43;;;10.10;88.60;;;;;;5009055;28;20408;-74
2022/01/29 11:38:01;;;;;;;10.87;8.23;;;10.10;89.40;;;;;;5009378;28;20395;-75
2022/01/29 11:40:44;;;;;;;8.80;7.05;;;10.10;89.70;;;;;;5001723;28;20381;-74
2022/01/29 11:43:18;;;;;;;8.10;7.05;;;10.20;89.10;;;;;;5011492;28;20493;-73
2022/01/29 11:45:56;;;;;;;7.80;7.00;;;10.20;87.10;;;;;;5011471;28;20810;-74
2022/01/29 11:48:32;;;;;;;9.02;6.90;;;10.20;87.70;;;;;;5011297;28;20389;-73
2022/01/29 11:51:02;;;;;;;7.20;6.43;;;10.20;87.60;;;;;;5011358;28;20750;-75
2022/01/29 11:53:50;;;;;;;6.20;5.60;;;10.30;87.10;;;;;;5011440;28;20852;-74
2022/01/29 11:56:29;;;;;;;7.72;5.65;;;10.30;86.20;;;;;;4996430;28;20770;-74
2022/01/29 11:59:19;;;;;;;5.28;4.78;;;10.40;86.40;;;;;;5007244;28;20393;-75
2022/01/29 12:01:45;;;;;;;4.90;4.40;;;10.50;84.30;;;;;;5024741;28;20406;-75
2022/01/29 12:04:11;;;;;;;4.90;4.40;;;10.60;82.80;;;;;;5042621;28;20394;-73
2022/01/29 12:06:42;;;;;;;4.20;3.80;;;10.70;80.00;;;;;;5015071;28;20788;-74
2022/01/29 12:09:29;;;;;;;4.97;3.40;;;10.80;77.30;;;;;;4993885;28;20544;-75
2022/01/29 12:12:27;;;;;;;8.50;4.32;;;10.90;76.10;;;;;;5011685;28;20445;-74
2022/01/29 12:14:58;;;;;;;5.35;3.22;;;10.90;74.60;;;;;;4993838;28;20416;-73
2022/01/29 12:17:46;;;;;;;3.40;3.10;;;11.00;74.40;;;;;;5010860;28;20431;-73
2022/01/29 12:20:14;;;;;;;5.28;3.15;;;11.00;70.80;;;;;;5013610;28;20461;-74
2022/01/29 12:22:41;;;;;;;3.30;3.00;;;11.00;69.50;;;;;;5030686;28;20432;-74
2022/01/29 12:25:18;;;;;;;3.65;3.10;;;11.00;69.20;;;;;;5030783;28;20383;-74
2022/01/29 12:27:55;;;;;;;3.33;3.03;;;11.00;69.60;;;;;;5017329;28;20396;-74
2022/01/29 12:30:26;;;;;;;3.23;3.03;;;11.10;67.30;;;;;;5011728;28;20970;-74
2022/01/29 12:33:12;;;;;;;3.17;2.97;;;11.10;66.20;;;;;;5011076;28;20503;-74
2022/01/29 12:35:54;;;;;;;4.13;3.15;;;11.10;66.00;;;;;;5010655;28;20389;-77
2022/01/29 12:38:28;;;;;;;4.00;3.53;;;11.10;64.90;;;;;;5017529;28;20398;-75
2022/01/29 12:41:02;;;;;;;3.40;3.10;;;11.20;64.40;;;;;;5005343;28;20442;-75
2022/01/29 12:43:41;;;;;;;3.50;3.00;;;11.30;62.40;;;;;;5010814;28;20423;-76
2022/01/29 12:46:12;;;;;;;2.92;2.72;;;11.40;60.80;;;;;;4992627;28;20418;-76
2022/01/29 12:48:39;;;;;;;4.15;2.95;;;11.40;60.90;;;;;;4992793;28;20780;-75
2022/01/29 12:51:06;;;;;;;3.20;3.00;;;11.40;58.60;;;;;;5019868;28;20408;-75
2022/01/29 12:53:33;;;;;;;3.50;3.20;;;11.40;58.60;;;;;;5012231;28;20408;-75